createdAt,value
2018-02-14T00:00:29.256Z,9.20
2018-02-14T00:03:07.678Z,9.20
2018-02-14T00:05:49.362Z,9.20
2018-02-14T00:08:27.805Z,9.40
2018-02-14T00:11:06.405Z,9.30
2018-02-14T00:13:44.677Z,9.30
2018-02-14T00:16:24.264Z,9.10
2018-02-14T00:19:02.684Z,9.20
2018-02-14T00:21:41.126Z,9.10
2018-02-14T00:24:19.565Z,8.90
2018-02-14T00:26:58.255Z,9.30
2018-02-14T00:29:36.667Z,9.30
2018-02-14T00:32:15.290Z,9.30
2018-02-14T00:34:53.883Z,9.20
2018-02-14T00:37:32.434Z,9.10
2018-02-14T00:40:11.070Z,9.30
2018-02-14T00:42:49.631Z,9.10
2018-02-14T00:45:28.173Z,9.40
2018-02-14T00:48:09.219Z,9.10
2018-02-14T00:50:48.175Z,9.20
2018-02-14T00:53:26.710Z,9.00
2018-02-14T00:56:05.218Z,8.90
2018-02-14T00:58:43.785Z,8.80
2018-02-14T01:01:23.301Z,8.90
2018-02-14T01:04:03.769Z,8.80
2018-02-14T01:06:42.248Z,8.80
2018-02-14T01:09:20.707Z,8.50
2018-02-14T01:11:59.300Z,8.30
2018-02-14T01:14:37.770Z,8.50
2018-02-14T01:17:17.233Z,8.20
2018-02-14T01:20:01.735Z,8.50
2018-02-14T01:22:40.253Z,8.00
2018-02-14T01:25:18.695Z,8.10
2018-02-14T01:27:57.064Z,7.80
2018-02-14T01:30:36.545Z,7.60
2018-02-14T01:33:18.517Z,7.80
2018-02-14T01:35:56.853Z,7.30
2018-02-14T01:38:35.350Z,7.30
2018-02-14T01:41:13.900Z,7.30
2018-02-14T01:43:53.006Z,6.90
2018-02-14T01:46:32.009Z,6.90
2018-02-14T01:49:10.546Z,6.70
2018-02-14T01:51:50.942Z,6.60
2018-02-14T01:54:29.856Z,6.60
2018-02-14T01:57:07.864Z,6.20
2018-02-14T01:59:47.357Z,6.40
2018-02-14T02:02:26.073Z,6.30
2018-02-14T02:05:04.758Z,6.20
2018-02-14T02:07:45.213Z,6.00
2018-02-14T02:10:24.791Z,5.90
2018-02-14T02:13:03.248Z,6.00
2018-02-14T02:15:42.632Z,5.90
2018-02-14T02:18:22.975Z,5.60
2018-02-14T02:21:03.405Z,5.70
2018-02-14T02:23:42.133Z,5.40
2018-02-14T02:26:20.589Z,5.40
2018-02-14T02:29:01.150Z,5.20
2018-02-14T02:31:41.546Z,5.30
2018-02-14T02:34:21.762Z,5.20
2018-02-14T02:37:00.724Z,5.00
2018-02-14T02:39:51.381Z,5.10
2018-02-14T02:42:30.759Z,5.10
2018-02-14T02:45:09.194Z,4.80
2018-02-14T02:47:48.771Z,4.70
2018-02-14T02:50:28.535Z,5.10
2018-02-14T02:53:06.961Z,4.70
2018-02-14T02:55:45.347Z,5.00
2018-02-14T02:58:23.828Z,5.10
2018-02-14T03:01:01.395Z,5.00
2018-02-14T03:03:39.791Z,4.70
2018-02-14T03:06:18.402Z,4.70
2018-02-14T03:08:58.644Z,4.70
2018-02-14T03:11:38.408Z,4.70
2018-02-14T03:14:17.743Z,4.80
2018-02-14T03:16:57.349Z,4.50
2018-02-14T03:19:36.618Z,4.10
2018-02-14T03:22:15.248Z,4.10
2018-02-14T03:24:53.975Z,4.20
2018-02-14T03:27:34.568Z,4.40
2018-02-14T03:30:13.122Z,4.50
2018-02-14T03:32:51.737Z,4.50
2018-02-14T03:35:30.316Z,4.40
2018-02-14T03:38:08.707Z,4.50
2018-02-14T03:40:47.502Z,4.40
2018-02-14T03:43:26.040Z,4.50
2018-02-14T03:46:04.642Z,4.40
2018-02-14T03:48:41.036Z,4.20
2018-02-14T03:51:21.481Z,4.40
2018-02-14T03:54:00.041Z,4.10
2018-02-14T03:56:39.498Z,4.40
2018-02-14T03:59:17.928Z,4.30
2018-02-14T04:01:56.454Z,3.90
2018-02-14T04:04:34.954Z,3.90
2018-02-14T04:07:13.640Z,4.10
2018-02-14T04:09:52.141Z,3.80
2018-02-14T04:12:30.756Z,4.00
2018-02-14T04:15:10.288Z,3.60
2018-02-14T04:17:48.921Z,4.20
2018-02-14T04:20:27.597Z,3.70
2018-02-14T04:23:06.267Z,4.00
2018-02-14T04:25:47.047Z,4.20
2018-02-14T04:28:27.616Z,4.10
2018-02-14T04:31:06.338Z,3.80
2018-02-14T04:33:45.908Z,4.20
2018-02-14T04:36:26.426Z,4.10
2018-02-14T04:39:05.202Z,4.20
2018-02-14T04:41:43.746Z,4.60
2018-02-14T04:44:24.137Z,4.80
2018-02-14T04:47:02.792Z,5.10
2018-02-14T04:49:41.415Z,4.90
2018-02-14T04:52:19.968Z,5.00
2018-02-14T04:55:00.652Z,5.10
2018-02-14T04:57:39.354Z,5.00
2018-02-14T05:00:18.837Z,4.80
2018-02-14T05:02:57.561Z,5.20
2018-02-14T05:05:37.110Z,5.10
2018-02-14T05:08:15.656Z,5.40
2018-02-14T05:10:56.194Z,5.30
2018-02-14T05:13:35.917Z,5.20
2018-02-14T05:16:15.624Z,5.20
2018-02-14T05:18:53.526Z,5.30
2018-02-14T05:21:32.108Z,5.40
2018-02-14T05:24:10.936Z,5.30
2018-02-14T05:26:49.430Z,5.40
2018-02-14T05:29:30.121Z,5.40
2018-02-14T05:32:08.595Z,5.60
2018-02-14T05:34:47.253Z,5.60
2018-02-14T05:37:25.646Z,5.60
2018-02-14T05:40:03.286Z,5.60
2018-02-14T05:42:41.863Z,5.60
2018-02-14T05:45:21.609Z,5.60
2018-02-14T05:48:04.027Z,5.50
2018-02-14T05:50:42.378Z,5.40
2018-02-14T05:53:20.949Z,5.50
2018-02-14T05:56:00.464Z,5.50
2018-02-14T05:58:39.090Z,5.60
2018-02-14T06:01:17.657Z,5.50
2018-02-14T06:03:56.170Z,5.80
2018-02-14T06:06:35.596Z,5.90
2018-02-14T06:09:15.025Z,5.80
2018-02-14T06:11:56.361Z,5.40
2018-02-14T06:14:35.013Z,5.90
2018-02-14T06:17:13.745Z,5.90
2018-02-14T06:19:55.232Z,6.00
2018-02-14T06:22:36.069Z,5.90
2018-02-14T06:25:15.617Z,5.90
2018-02-14T06:27:54.333Z,5.90
2018-02-14T06:30:32.940Z,5.90
2018-02-14T06:33:11.442Z,5.90
2018-02-14T06:35:49.983Z,5.60
2018-02-14T06:38:28.560Z,5.70
2018-02-14T06:41:06.996Z,6.00
2018-02-14T06:43:46.651Z,6.00
2018-02-14T06:46:25.157Z,5.50
2018-02-14T06:49:03.847Z,5.80
2018-02-14T06:51:42.302Z,5.90
2018-02-14T06:54:20.968Z,5.90
2018-02-14T06:57:00.735Z,5.90
2018-02-14T06:59:39.166Z,5.90
2018-02-14T07:02:17.792Z,5.70
2018-02-14T07:04:56.347Z,5.80
2018-02-14T07:07:35.792Z,5.80
2018-02-14T07:10:16.464Z,6.00
2018-02-14T07:12:55.223Z,5.90
2018-02-14T07:15:33.632Z,5.90
2018-02-14T07:18:12.150Z,6.00
2018-02-14T07:20:50.746Z,5.90
2018-02-14T07:23:34.158Z,5.70
2018-02-14T07:26:12.836Z,5.70
2018-02-14T07:28:54.587Z,5.90
2018-02-14T07:31:35.193Z,5.80
2018-02-14T07:34:14.053Z,5.90
2018-02-14T07:36:52.941Z,5.60
2018-02-14T07:39:31.433Z,5.70
2018-02-14T07:42:11.292Z,5.90
2018-02-14T07:44:51.158Z,5.50
2018-02-14T07:47:29.825Z,5.60
2018-02-14T07:50:09.491Z,5.40
2018-02-14T07:52:48.069Z,5.70
2018-02-14T07:55:28.500Z,5.70
2018-02-14T07:58:06.923Z,5.60
2018-02-14T08:00:46.456Z,5.50
2018-02-14T08:03:24.848Z,5.60
2018-02-14T08:06:03.383Z,5.60
2018-02-14T08:08:42.153Z,5.60
2018-02-14T08:11:22.960Z,5.70
2018-02-14T08:14:01.260Z,5.40
2018-02-14T08:16:39.962Z,5.60
2018-02-14T08:19:17.630Z,5.60
2018-02-14T08:21:56.098Z,5.60
2018-02-14T08:24:35.777Z,5.50
2018-02-14T08:27:14.373Z,5.60
2018-02-14T08:29:53.948Z,5.70
2018-02-14T08:32:32.652Z,5.70
2018-02-14T08:35:12.211Z,5.70
2018-02-14T08:37:50.848Z,5.60
2018-02-14T08:40:28.479Z,5.30
2018-02-14T08:43:06.793Z,5.50
2018-02-14T08:45:46.176Z,5.30
2018-02-14T08:48:24.780Z,5.60
2018-02-14T08:51:03.385Z,5.40
2018-02-14T08:53:44.003Z,5.40
2018-02-14T08:56:23.724Z,5.40
2018-02-14T08:59:02.245Z,5.30
2018-02-14T09:01:39.706Z,5.40
2018-02-14T09:04:16.988Z,5.20
2018-02-14T09:06:55.189Z,5.30
2018-02-14T09:09:33.841Z,5.30
2018-02-14T09:12:13.574Z,5.30
2018-02-14T09:14:52.180Z,5.00
2018-02-14T09:17:30.891Z,4.90
2018-02-14T09:20:11.573Z,5.00
2018-02-14T09:22:50.349Z,5.00
2018-02-14T09:25:27.893Z,5.10
2018-02-14T09:28:06.363Z,5.00
2018-02-14T09:30:46.063Z,4.80
2018-02-14T09:33:24.646Z,4.40
2018-02-14T09:36:03.584Z,4.40
2018-02-14T09:38:42.162Z,4.40
2018-02-14T09:41:20.610Z,4.20
2018-02-14T09:43:59.090Z,4.20
2018-02-14T09:46:36.483Z,4.20
2018-02-14T09:49:16.128Z,4.50
2018-02-14T09:51:53.108Z,4.30
2018-02-14T09:54:32.346Z,4.20
2018-02-14T09:57:10.707Z,4.10
2018-02-14T09:59:50.335Z,4.10
2018-02-14T10:02:29.067Z,3.90
2018-02-14T10:05:08.746Z,3.80
2018-02-14T10:07:47.507Z,4.10
2018-02-14T10:10:26.062Z,4.10
2018-02-14T10:13:05.586Z,3.90
2018-02-14T10:15:42.996Z,3.80
2018-02-14T10:18:21.688Z,3.50
2018-02-14T10:21:00.925Z,3.90
2018-02-14T10:23:39.734Z,3.80
2018-02-14T10:26:18.504Z,3.50
2018-02-14T10:28:57.328Z,3.60
2018-02-14T10:31:36.854Z,3.20
2018-02-14T10:34:16.317Z,3.30
2018-02-14T10:36:54.925Z,3.30
2018-02-14T10:39:34.671Z,3.20
2018-02-14T10:42:14.112Z,3.20
2018-02-14T10:44:53.702Z,2.70
2018-02-14T10:47:32.357Z,2.70
2018-02-14T10:50:11.840Z,2.80
2018-02-14T10:52:50.651Z,2.70
2018-02-14T10:55:29.096Z,2.80
2018-02-14T10:58:07.569Z,2.70
2018-02-14T11:00:52.003Z,2.80
2018-02-14T11:03:37.654Z,2.40
2018-02-14T11:06:16.253Z,2.40
2018-02-14T11:08:55.046Z,2.50
2018-02-14T11:11:35.602Z,2.60
2018-02-14T11:14:16.028Z,2.50
2018-02-14T11:16:55.770Z,2.50
2018-02-14T11:19:35.444Z,2.40
2018-02-14T11:22:15.139Z,2.20
2018-02-14T11:24:53.663Z,2.20
2018-02-14T11:27:32.266Z,2.70
2018-02-14T11:30:11.920Z,2.10
2018-02-14T11:32:51.553Z,2.20
2018-02-14T11:35:31.088Z,2.50
2018-02-14T11:38:10.702Z,2.40
2018-02-14T11:40:49.155Z,2.10
2018-02-14T11:43:27.837Z,2.20
2018-02-14T11:46:06.249Z,2.20
2018-02-14T11:48:44.853Z,2.40
2018-02-14T11:51:24.284Z,2.20
2018-02-14T11:54:03.758Z,2.20
2018-02-14T11:56:42.554Z,2.30
2018-02-14T11:59:22.111Z,2.10
2018-02-14T12:01:59.648Z,1.80
2018-02-14T12:04:38.172Z,2.00
2018-02-14T12:07:21.753Z,2.10
2018-02-14T12:09:59.239Z,1.80
2018-02-14T12:12:36.880Z,1.80
2018-02-14T12:15:15.364Z,2.00
2018-02-14T12:17:54.934Z,2.00
2018-02-14T12:20:33.748Z,2.10
2018-02-14T12:23:12.089Z,2.00
2018-02-14T12:25:51.345Z,2.00
2018-02-14T12:28:29.369Z,2.30
2018-02-14T12:31:07.990Z,2.10
2018-02-14T12:33:47.524Z,2.30
2018-02-14T12:36:25.918Z,2.20
2018-02-14T12:39:04.320Z,2.40
2018-02-14T12:41:43.049Z,2.40
2018-02-14T12:44:22.656Z,2.20
2018-02-14T12:47:01.359Z,2.10
2018-02-14T12:49:39.869Z,2.30
2018-02-14T12:52:18.518Z,2.30
2018-02-14T12:54:56.937Z,2.10
2018-02-14T12:57:37.323Z,2.30
2018-02-14T13:00:14.994Z,2.30
2018-02-14T13:02:53.642Z,2.30
2018-02-14T13:05:33.507Z,2.40
2018-02-14T13:08:11.834Z,2.50
2018-02-14T13:10:50.332Z,2.50
2018-02-14T13:13:30.692Z,2.60
2018-02-14T13:16:08.278Z,2.50
2018-02-14T13:18:47.914Z,2.50
2018-02-14T13:21:27.615Z,2.60
2018-02-14T13:24:05.963Z,2.50
2018-02-14T13:26:45.512Z,2.70
2018-02-14T13:29:24.962Z,2.70
2018-02-14T13:32:03.496Z,2.80
2018-02-14T13:34:43.194Z,2.70
2018-02-14T13:37:21.832Z,2.60
2018-02-14T13:40:00.457Z,2.70
2018-02-14T13:42:38.984Z,2.70
2018-02-14T13:45:17.490Z,2.70
2018-02-14T13:47:56.212Z,2.80
2018-02-14T13:50:35.746Z,2.70
2018-02-14T13:53:14.431Z,3.00
2018-02-14T13:55:55.888Z,2.90
2018-02-14T13:58:34.554Z,2.90
2018-02-14T14:01:13.092Z,3.20
2018-02-14T14:03:51.870Z,3.00
2018-02-14T14:06:31.334Z,3.20
2018-02-14T14:09:10.146Z,3.00
2018-02-14T14:11:48.915Z,3.00
2018-02-14T14:14:27.211Z,3.10
2018-02-14T14:17:05.653Z,3.30
2018-02-14T14:19:46.130Z,3.20
2018-02-14T14:22:23.703Z,3.10
2018-02-14T14:25:03.082Z,3.50
2018-02-14T14:27:42.698Z,3.10
2018-02-14T14:30:21.384Z,3.20
2018-02-14T14:33:00.973Z,3.30
2018-02-14T14:35:39.505Z,3.30
2018-02-14T14:38:19.240Z,3.20
2018-02-14T14:40:57.813Z,3.30
2018-02-14T14:43:36.501Z,3.50
2018-02-14T14:46:15.948Z,3.30
2018-02-14T14:48:54.687Z,3.50
2018-02-14T14:51:34.760Z,3.50
2018-02-14T14:54:12.941Z,3.30
2018-02-14T14:56:51.335Z,3.20
2018-02-14T14:59:30.104Z,3.60
2018-02-14T15:02:08.752Z,3.50
2018-02-14T15:04:47.324Z,3.70
2018-02-14T15:07:28.018Z,3.60
2018-02-14T15:10:07.638Z,3.60
2018-02-14T15:12:48.099Z,3.50
2018-02-14T15:15:26.813Z,3.50
2018-02-14T15:18:08.503Z,3.80
2018-02-14T15:20:49.043Z,3.80
2018-02-14T15:23:27.445Z,3.80
2018-02-14T15:26:08.050Z,3.80
2018-02-14T15:28:47.509Z,3.80
2018-02-14T15:31:26.800Z,3.80
2018-02-14T15:34:06.521Z,3.80
2018-02-14T15:36:45.679Z,4.10
2018-02-14T15:39:25.707Z,4.00
2018-02-14T15:42:04.167Z,4.00
2018-02-14T15:44:42.708Z,3.70
2018-02-14T15:47:21.364Z,3.70
2018-02-14T15:49:59.804Z,4.00
2018-02-14T15:52:38.235Z,3.80
2018-02-14T15:55:17.749Z,3.80
2018-02-14T15:57:57.443Z,3.80
2018-02-14T16:00:36.941Z,4.10
2018-02-14T16:03:16.353Z,3.90
2018-02-14T16:05:55.493Z,4.20
2018-02-14T16:08:34.314Z,3.90
2018-02-14T16:11:11.882Z,3.80
2018-02-14T16:13:50.295Z,4.40
2018-02-14T16:16:28.749Z,3.90
2018-02-14T16:19:08.348Z,4.10
2018-02-14T16:21:46.878Z,4.10
2018-02-14T16:24:25.322Z,4.20
2018-02-14T16:27:05.864Z,4.20
2018-02-14T16:29:44.642Z,4.30
2018-02-14T16:32:23.827Z,4.10
2018-02-14T16:35:02.106Z,4.50
2018-02-14T16:37:40.768Z,4.40
2018-02-14T16:40:20.391Z,4.40
2018-02-14T16:42:59.782Z,5.00
2018-02-14T16:45:38.236Z,5.10
2018-02-14T16:48:16.867Z,4.80
2018-02-14T16:50:56.369Z,5.00
2018-02-14T16:53:36.970Z,5.00
2018-02-14T16:56:16.477Z,5.00
2018-02-14T16:58:55.061Z,5.00
2018-02-14T17:01:33.529Z,5.10
2018-02-14T17:04:12.942Z,5.20
2018-02-14T17:06:52.509Z,5.20
2018-02-14T17:09:31.126Z,5.30
2018-02-14T17:12:12.515Z,5.20
2018-02-14T17:14:51.984Z,5.60
2018-02-14T17:17:31.658Z,5.60
2018-02-14T17:20:09.088Z,5.70
2018-02-14T17:22:48.496Z,5.70
2018-02-14T17:25:27.079Z,5.50
2018-02-14T17:28:06.829Z,5.70
2018-02-14T17:30:46.259Z,6.10
2018-02-14T17:33:26.740Z,6.30
2018-02-14T17:36:06.457Z,6.30
2018-02-14T17:38:45.052Z,6.60
2018-02-14T17:41:23.651Z,6.90
2018-02-14T17:44:02.008Z,7.30
2018-02-14T17:46:40.692Z,7.70
2018-02-14T17:49:19.300Z,8.30
2018-02-14T17:51:57.717Z,8.40
2018-02-14T17:54:36.223Z,8.60
2018-02-14T17:57:14.850Z,8.60
2018-02-14T17:59:54.715Z,8.30
2018-02-14T18:02:34.032Z,8.50
2018-02-14T18:05:14.634Z,9.30
2018-02-14T18:07:53.136Z,9.40
2018-02-14T18:10:31.653Z,9.50
2018-02-14T18:13:11.074Z,9.30
2018-02-14T18:15:50.006Z,9.30
2018-02-14T18:18:28.723Z,9.30
2018-02-14T18:21:06.379Z,8.90
2018-02-14T18:23:48.063Z,8.30
2018-02-14T18:26:27.611Z,8.90
2018-02-14T18:29:07.085Z,8.80
2018-02-14T18:31:45.404Z,8.90
2018-02-14T18:34:24.095Z,8.50
2018-02-14T18:37:02.544Z,8.50
2018-02-14T18:39:41.170Z,8.90
2018-02-14T18:42:20.639Z,8.60
2018-02-14T18:44:59.369Z,8.50
2018-02-14T18:47:38.927Z,8.00
2018-02-14T18:50:18.531Z,7.90
2018-02-14T18:52:57.126Z,7.90
2018-02-14T18:55:35.755Z,7.80
2018-02-14T18:58:14.362Z,7.80
2018-02-14T19:00:54.122Z,7.80
2018-02-14T19:03:32.716Z,7.50
2018-02-14T19:06:11.415Z,7.80
2018-02-14T19:08:51.091Z,8.00
2018-02-14T19:11:29.709Z,8.30
2018-02-14T19:14:08.099Z,8.80
2018-02-14T19:16:46.415Z,8.80
2018-02-14T19:19:24.856Z,9.00
2018-02-14T19:22:03.316Z,8.80
2018-02-14T19:24:42.880Z,8.70
2018-02-14T19:27:21.474Z,8.80
2018-02-14T19:30:01.311Z,8.90
2018-02-14T19:32:39.737Z,8.90
2018-02-14T19:35:19.335Z,8.80
2018-02-14T19:37:57.790Z,8.70
2018-02-14T19:40:36.368Z,8.60
2018-02-14T19:43:15.963Z,8.90
2018-02-14T19:45:54.489Z,9.00
2018-02-14T19:48:34.083Z,9.30
2018-02-14T19:51:12.654Z,9.30
2018-02-14T19:53:51.205Z,9.20
2018-02-14T19:56:29.775Z,9.30
2018-02-14T19:59:08.359Z,9.60
2018-02-14T20:01:48.003Z,10.00
2018-02-14T20:04:27.501Z,10.10
2018-02-14T20:07:06.154Z,10.10
2018-02-14T20:09:44.865Z,10.20
2018-02-14T20:12:20.969Z,10.20
2018-02-14T20:14:59.012Z,10.30
2018-02-14T20:17:37.536Z,10.50
2018-02-14T20:20:17.066Z,10.80
2018-02-14T20:22:57.520Z,10.80
2018-02-14T20:25:36.139Z,11.20
2018-02-14T20:28:15.703Z,11.30
2018-02-14T20:30:54.379Z,11.30
2018-02-14T20:33:33.011Z,11.40
2018-02-14T20:36:11.675Z,11.40
2018-02-14T20:38:50.198Z,11.30
2018-02-14T20:41:28.667Z,10.90
2018-02-14T20:44:09.182Z,11.20
2018-02-14T20:46:49.738Z,11.20
2018-02-14T20:49:30.370Z,11.20
2018-02-14T20:52:08.826Z,11.20
2018-02-14T20:54:47.344Z,11.10
2018-02-14T20:57:27.068Z,11.00
2018-02-14T21:00:05.505Z,10.80
2018-02-14T21:02:44.099Z,10.80
2018-02-14T21:05:22.531Z,10.90
2018-02-14T21:08:00.931Z,10.90
2018-02-14T21:10:39.501Z,10.80
2018-02-14T21:13:18.117Z,10.60
2018-02-14T21:15:56.726Z,10.50
2018-02-14T21:18:35.304Z,10.50
2018-02-14T21:21:14.111Z,10.50
2018-02-14T21:23:52.608Z,10.70
2018-02-14T21:26:31.193Z,10.70
2018-02-14T21:29:09.680Z,10.80
2018-02-14T21:31:48.203Z,11.00
2018-02-14T21:34:26.740Z,11.10
2018-02-14T21:37:05.325Z,11.50
2018-02-14T21:39:43.949Z,11.60
2018-02-14T21:42:23.469Z,11.40
2018-02-14T21:45:02.051Z,11.60
2018-02-14T21:47:40.517Z,11.60
2018-02-14T21:50:19.068Z,11.50
2018-02-14T21:52:57.525Z,11.60
2018-02-14T21:55:36.086Z,11.40
2018-02-14T21:58:14.519Z,11.40
2018-02-14T22:00:53.175Z,11.50
2018-02-14T22:03:31.647Z,11.30
2018-02-14T22:06:10.015Z,11.00
2018-02-14T22:08:48.587Z,10.90
2018-02-14T22:11:27.891Z,11.00
2018-02-14T22:14:07.267Z,10.90
2018-02-14T22:16:46.147Z,10.90
2018-02-14T22:19:24.674Z,11.10
2018-02-14T22:22:04.300Z,11.10
2018-02-14T22:24:42.891Z,11.20
2018-02-14T22:27:21.435Z,11.20
2018-02-14T22:29:59.019Z,11.10
2018-02-14T22:32:37.415Z,11.10
2018-02-14T22:35:15.893Z,11.00
2018-02-14T22:37:53.522Z,10.50
2018-02-14T22:40:32.002Z,10.50
2018-02-14T22:43:13.698Z,10.30
2018-02-14T22:45:54.028Z,10.00
2018-02-14T22:48:34.713Z,9.90
2018-02-14T22:51:13.266Z,9.30
2018-02-14T22:53:51.743Z,8.90
2018-02-14T22:56:30.199Z,8.70
2018-02-14T22:59:08.701Z,8.50
2018-02-14T23:01:48.252Z,8.60
2018-02-14T23:04:26.713Z,8.00
2018-02-14T23:07:05.585Z,7.80
2018-02-14T23:09:44.060Z,7.60
2018-02-14T23:12:22.570Z,7.60
2018-02-14T23:15:01.062Z,7.50
2018-02-14T23:17:38.468Z,7.60
2018-02-14T23:20:16.942Z,7.90
2018-02-14T23:22:55.408Z,8.00
2018-02-14T23:25:34.814Z,8.00
2018-02-14T23:28:13.368Z,8.40
2018-02-14T23:30:51.962Z,8.90
2018-02-14T23:33:32.499Z,8.70
2018-02-14T23:36:10.931Z,8.90
2018-02-14T23:38:50.320Z,8.90
2018-02-14T23:41:28.872Z,9.20
2018-02-14T23:44:08.501Z,8.90
2018-02-14T23:46:47.134Z,8.80
2018-02-14T23:49:25.789Z,8.80
2018-02-14T23:52:04.173Z,8.90
2018-02-14T23:54:42.693Z,8.90
2018-02-14T23:57:21.158Z,8.70
2018-02-14T23:59:59.600Z,8.70
